METAR Data
IDs: Format: Raw Decoded Include TAF

Data at: 0617 UTC 19 Aug 2019

KASG 190148Z 10004KT 10SM FEW095 26/22 A2996
KASG 190048Z 00000KT 10SM FEW095 28/23 A2993
KASG 182348Z 00000KT 10SM BKN100 29/22 A2992
KASG 182248Z 20012KT 10SM FEW100 30/20 A2991
KASG 182148Z 23005G10KT 10SM CLR 29/20 A2992
KASG 182048Z 23006KT 10SM CLR 29/22 A2992
KASG 181948Z 21006KT 10SM CLR 28/20 A2991
KASG 181848Z 18008G16KT 10SM FEW055 BKN110 23/21 A2994
KASG 181748Z 22008G14KT 10SM -TSRA FEW055 SCT070 BKN110 26/26 A2999 RMK TS S MOV SE
KASG 181719Z 24004KT 10SM -TSRA SCT032 BKN055 26/24 A2999 RMK TS SW MOV S
KASG 181648Z 24010KT 10SM SCT060 BKN095 30/24 A2999
KASG 181548Z 21008G14KT 10SM SCT075 30/25 A2999
KASG 181448Z 16004KT 10SM SCT250 27/24 A2999
KASG 181348Z 09005KT 10SM SCT025 BKN031 OVC060 25/24 A2997
KASG 181248Z 08004KT 10SM OVC023 25/24 A2998
KASG 181148Z 00000KT 10SM CLR 24/24 A2994
KASG 181048Z 18004KT 10SM CLR 25/23 A2991
KASG 180148Z 11004KT 10SM CLR 28/23 A2988
KASG 180048Z 11004KT 10SM CLR 30/21 A2987
KASG 172348Z 14008KT 10SM CLR 32/22 A2987
KASG 172248Z 17011G18KT 10SM FEW120 32/21 A2989
KASG 172148Z 18011KT 10SM CLR 33/21 A2990
KASG 172048Z 16007G17KT 10SM SCT040 33/21 A2990
KASG 171948Z 16007G13KT 10SM SCT040 33/22 A2993
KASG 171848Z 12004G10KT 10SM SCT040 31/23 A2995